Kipany — WDD7913 — position and weather

sailwx.info

Track history (hours):
 
Tides and Currents Weather Stations Pressure Air Temp Water Temp Dewpoint Dewpoint Depression Visibility Wind Speed Wind Dir Waves Ship Positions

Kipany

Owner: Im Kipany, LLC, Ft. Lauderdale, FL. More information available from US FCC via Universal Licensing System and Coast Guard Vessel Documentation Center.

Last reported at 2017-Jun-06 10:48 UTC. Time now 2017-Aug-16 21:49 UTC.
Position N 34°32' W 076°36'.
Warning: this ship's position is months out of date.

Length 35 m; draft 2 m.

Type: Pleasure craft. MMSI: 367192870.

Date/timePositionNaut miles runAvg speedWind from/ knotsBaromVisibWave heightAir tempDewpointWater temp
2017-Jun-06 10:48N 34°32' W 076°36'415.5
2017-Jun-06 10:30N 34°36' W 076°38'612.9
2017-Jun-06 10:01N 34°42' W 076°41'1 1.7
2017-Jun-06 09:29N 34°43' W 076°40'0 0.0
2017-Jun-06 08:59N 34°43' W 076°40'0 0.0
2017-Jun-06 08:29N 34°43' W 076°40'0 0.0
2017-Jun-06 07:59N 34°43' W 076°40'0 0.0
2017-Jun-06 07:29N 34°43' W 076°40'0 0.0
2017-Jun-06 06:59N 34°43' W 076°40'0 0.0
2017-Jun-06 06:29N 34°43' W 076°40'0 0.0
2017-Jun-06 05:50N 34°43' W 076°40'0 0.0
2017-Jun-06 05:29N 34°43' W 076°40'0 0.0
2017-Jun-06 04:59N 34°43' W 076°40'0 0.0
2017-Jun-06 04:29N 34°43' W 076°40'0 0.0
2017-Jun-06 03:59N 34°43' W 076°40'0 0.0
2017-Jun-06 03:29N 34°43' W 076°40'0 0.0
2017-Jun-06 02:59N 34°43' W 076°40'0 0.0
2017-Jun-06 02:29N 34°43' W 076°40'0 0.0
2017-Jun-06 01:59N 34°43' W 076°40'0 0.0
2017-Jun-06 01:29N 34°43' W 076°40'0 0.0
2017-Jun-06 00:59N 34°43' W 076°40'0 0.0
2017-Jun-06 00:29N 34°43' W 076°40'0 0.0
2017-Jun-05 23:59N 34°43' W 076°40'0 0.0
2017-Jun-05 23:29N 34°43' W 076°40'0 0.0
2017-Jun-05 22:59N 34°43' W 076°40'0 0.0
2017-Jun-05 22:29N 34°43' W 076°40'0 0.0
2017-Jun-05 21:56N 34°43' W 076°40'0 0.0
2017-Jun-05 21:29N 34°43' W 076°40'0 0.0
2017-Jun-05 20:59N 34°43' W 076°40'0 0.0
2017-Jun-05 20:29N 34°43' W 076°40'0 0.0
2017-Jun-05 19:56N 34°43' W 076°40'0 0.0
2017-Jun-05 19:29N 34°43' W 076°40'0 0.0
2017-Jun-05 18:59N 34°43' W 076°40'0 0.0
2017-Jun-05 18:29N 34°43' W 076°40'0 0.0
2017-Jun-05 17:59N 34°43' W 076°40'0 0.0
2017-Jun-05 17:29N 34°43' W 076°40'0 0.0
2017-Jun-05 17:00N 34°43' W 076°40'2 3.2
2017-Jun-05 16:30N 34°41' W 076°40'612.9
2017-Jun-05 16:00N 34°35' W 076°40'52512.0
2017-Jun-03 20:09N 26°18' W 079°58'215.4
2017-Jun-03 20:00N 26°16' W 079°59'715.0
2017-Jun-03 19:30N 26°10' W 080°03'510.8
2017-Jun-03 19:00N 26°06' W 080°07'3 5.3
2017-Jun-03 18:30N 26°09' W 080°06'2 4.7
2017-Jun-03 18:00N 26°11' W 080°06'0 0.0
2017-Jun-03 17:14N 26°11' W 080°06'0 0.0
2017-Jun-03 16:44N 26°11' W 080°06'0 0.0
2017-Jun-03 16:29N 26°11' W 080°06'0 0.0
2017-Jun-03 15:59N 26°11' W 080°06'0 0.0
2017-Jun-03 15:29N 26°11' W 080°06'0 0.0
2017-Jun-03 14:59N 26°11' W 080°06'0 0.0
2017-Jun-03 13:59N 26°11' W 080°06'0 0.0
2017-Jun-03 13:29N 26°11' W 080°06'0 0.0
2017-Jun-03 12:59N 26°11' W 080°06'0 0.0
2017-Jun-03 12:14N 26°11' W 080°06'0 0.0
2017-Jun-03 11:56N 26°11' W 080°06'0 0.0
2017-Jun-03 11:26N 26°11' W 080°06'0 0.0
2017-Jun-03 10:53N 26°11' W 080°06'0 0.0
2017-Jun-03 10:26N 26°11' W 080°06'0 0.0
2017-Jun-03 09:56N 26°11' W 080°06'0 0.0
2017-Jun-03 09:20N 26°11' W 080°06'0 0.0
2017-Jun-03 08:50N 26°11' W 080°06'0 0.0
2017-Jun-03 08:29N 26°11' W 080°06'0 0.0
2017-Jun-03 07:56N 26°11' W 080°06'0 0.0
2017-Jun-03 07:26N 26°11' W 080°06'0 0.0
2017-Jun-03 06:53N 26°11' W 080°06'0 0.0
2017-Jun-03 06:20N 26°11' W 080°06'0 0.0
2017-Jun-03 05:56N 26°11' W 080°06'0 0.0
2017-Jun-03 05:29N 26°11' W 080°06'0 0.0
2017-Jun-03 04:59N 26°11' W 080°06'0 0.0
2017-Jun-03 04:29N 26°11' W 080°06'0 0.0
2017-Jun-03 03:59N 26°11' W 080°06'0 0.0
2017-Jun-03 03:29N 26°11' W 080°06'0 0.0
2017-Jun-03 02:59N 26°11' W 080°06'0 0.0
2017-Jun-03 02:26N 26°11' W 080°06'0 0.0
2017-Jun-03 01:59N 26°11' W 080°06'0 0.0
2017-Jun-03 01:30N 26°11' W 080°06'3 5.4
2017-Jun-03 01:00N 26°08' W 080°07'1 3.0
2017-Jun-03 00:30N 26°07' W 080°07'1 3.0
2017-Jun-03 00:01N 26°07' W 080°05'1 2.7
2017-Jun-02 23:31N 26°06' W 080°05'2 4.4
2017-Jun-02 23:00N 26°06' W 080°07'3 5.5
2017-Jun-02 22:30N 26°09' W 080°06'2 4.4
2017-Jun-02 22:00N 26°11' W 080°06'0 0.4
2017-Jun-02 21:27N 26°11' W 080°06'0 0.0
2017-Jun-02 21:00N 26°11' W 080°06'0 0.0
2017-Jun-02 20:24N 26°11' W 080°06'0 0.0
2017-Jun-02 19:57N 26°11' W 080°06'0 0.0
2017-Jun-02 19:30N 26°11' W 080°06'0 0.0
2017-Jun-02 19:00N 26°11' W 080°06'3 5.5
2017-Jun-02 18:30N 26°08' W 080°07'1 2.8
2017-Jun-02 18:00N 26°07' W 080°07'3 5.5
2017-Jun-02 17:31N 26°06' W 080°04'3 6.4
2017-Jun-02 17:00N 26°06' W 080°07'2 4.9
2017-Jun-02 16:30N 26°09' W 080°06'2 3.4
2017-Jun-02 16:01N 26°10' W 080°06'1 1.2
2017-Jun-02 15:28N 26°11' W 080°06'0 0.0
2017-Jun-02 14:58N 26°11' W 080°06'0 0.0
2017-Jun-02 14:22N 26°11' W 080°06'0 0.0
2017-Jun-02 13:22N 26°11' W 080°06'0 0.0
2017-Jun-02 12:55N 26°11' W 080°06'0 0.0
2017-Jun-02 12:25N 26°11' W 080°06'0 0.0
2017-Jun-02 11:58N 26°11' W 080°06'0 0.0
2017-Jun-02 11:28N 26°11' W 080°06'0 0.0
2017-Jun-02 10:55N 26°11' W 080°06'0 0.0
2017-Jun-02 10:28N 26°11' W 080°06'0 0.0
2017-Jun-02 09:58N 26°11' W 080°06'0 0.0
2017-Jun-02 09:28N 26°11' W 080°06'0 0.0
2017-Jun-02 08:58N 26°11' W 080°06'0 0.0
2017-Jun-02 08:28N 26°11' W 080°06'0 0.0
2017-Jun-02 07:58N 26°11' W 080°06'0 0.0
2017-Jun-02 07:28N 26°11' W 080°06'0 0.0
2017-Jun-02 06:58N 26°11' W 080°06'0 0.0
2017-Jun-02 06:28N 26°11' W 080°06'0 0.0
2017-Jun-02 05:58N 26°11' W 080°06'0 0.0
2017-Jun-02 05:28N 26°11' W 080°06'0 0.0
2017-Jun-02 04:58N 26°11' W 080°06'0 0.0
2017-Jun-02 04:28N 26°11' W 080°06'0 0.0
2017-Jun-02 03:58N 26°11' W 080°06'0 0.0
2017-Jun-02 03:19N 26°11' W 080°06'0 0.0
2017-Jun-02 02:55N 26°11' W 080°06'0 0.0
2017-Jun-02 02:25N 26°11' W 080°06'0 0.0
2017-Jun-02 01:55N 26°11' W 080°06'0 0.0
2017-Jun-02 01:25N 26°11' W 080°06'0 0.0
2017-Jun-02 00:55N 26°11' W 080°06'0 0.0
2017-Jun-02 00:19N 26°11' W 080°06'0 0.0
2017-Jun-01 23:55N 26°11' W 080°06'0 0.0
2017-Jun-01 23:25N 26°11' W 080°06'0 0.0
2017-Jun-01 22:52N 26°11' W 080°06'0 0.0
2017-Jun-01 22:25N 26°11' W 080°06'0 0.0
2017-Jun-01 21:52N 26°11' W 080°06'0 0.0
2017-Jun-01 21:28N 26°11' W 080°06'0 0.0
2017-Jun-01 21:00N 26°11' W 080°06'3 5.5
2017-Jun-01 20:30N 26°08' W 080°07'1 2.1
2017-Jun-01 20:00N 26°07' W 080°07'2 3.4
2017-Jun-01 19:30N 26°06' W 080°06'3 6.8
2017-Jun-01 19:01N 26°08' W 080°03'2 4.2
2017-Jun-01 18:31N 26°08' W 080°05'3 5.0
2017-Jun-01 18:00N 26°06' W 080°07'2 4.6
2017-Jun-01 17:30N 26°08' W 080°06'2 5.0
2017-Jun-01 17:00N 26°11' W 080°06'0 0.1
2017-Jun-01 16:29N 26°11' W 080°06'0 0.0
2017-Jun-01 15:59N 26°11' W 080°06'0 0.0
2017-Jun-01 15:29N 26°11' W 080°06'0 0.0
2017-Jun-01 14:59N 26°11' W 080°06'0 0.0
2017-Jun-01 14:29N 26°11' W 080°06'0 0.0
2017-Jun-01 13:29N 26°11' W 080°06'0 0.0
2017-Jun-01 12:59N 26°11' W 080°06'0 0.0
2017-Jun-01 12:29N 26°11' W 080°06'0 0.0
2017-Jun-01 11:56N 26°11' W 080°06'0 0.0
2017-Jun-01 11:29N 26°11' W 080°06'0 0.0
2017-Jun-01 10:59N 26°11' W 080°06'0 0.0
2017-Jun-01 10:29N 26°11' W 080°06'0 0.0
2017-Jun-01 09:59N 26°11' W 080°06'0 0.0
2017-Jun-01 09:29N 26°11' W 080°06'0 0.0
2017-Jun-01 08:59N 26°11' W 080°06'0 0.0
2017-Jun-01 08:29N 26°11' W 080°06'0 0.0
2017-Jun-01 07:56N 26°11' W 080°06'0 0.0
2017-Jun-01 07:29N 26°11' W 080°06'0 0.0
2017-Jun-01 06:59N 26°11' W 080°06'0 0.0
2017-Jun-01 06:29N 26°11' W 080°06'0 0.0
2017-Jun-01 05:59N 26°11' W 080°06'0 0.0
2017-Jun-01 05:29N 26°11' W 080°06'0 0.0
2017-Jun-01 04:59N 26°11' W 080°06'0 0.0
2017-Jun-01 04:29N 26°11' W 080°06'0 0.0
2017-Jun-01 03:56N 26°11' W 080°06'0 0.0
2017-Jun-01 03:29N 26°11' W 080°06'0 0.0
2017-Jun-01 02:59N 26°11' W 080°06'0 0.0
2017-Jun-01 02:26N 26°11' W 080°06'0 0.0
2017-Jun-01 01:59N 26°11' W 080°06'0 0.0
2017-Jun-01 01:29N 26°11' W 080°06'0 0.0
2017-Jun-01 00:59N 26°11' W 080°06'0 0.0
2017-Jun-01 00:29N 26°11' W 080°06'0 0.0
2017-May-31 23:59N 26°11' W 080°06'0 0.0
2017-May-31 23:29N 26°11' W 080°06'0 0.0
2017-May-31 22:56N 26°11' W 080°06'0 0.0
2017-May-31 22:29N 26°11' W 080°06'0 0.0
2017-May-31 21:59N 26°11' W 080°06'0 0.0
2017-May-31 21:26N 26°11' W 080°06'0 0.0
2017-May-31 20:59N 26°11' W 080°06'0 0.0
2017-May-31 20:30N 26°11' W 080°06'3 5.5
2017-May-31 20:00N 26°08' W 080°07'2 4.6
2017-May-31 19:30N 26°06' W 080°07'5 9.2
2017-May-31 19:00N 26°10' W 080°04'2 3.7
2017-May-31 18:31N 26°08' W 080°04'713.9
2017-May-31 18:01N 26°05' W 079°57'3 5.8
2017-May-31 17:30N 26°05' W 079°60'4 8.7
2017-May-31 17:00N 26°05' W 080°05'2 4.8
2017-May-31 16:30N 26°06' W 080°07'0 0.8
2017-May-31 16:00N 26°07' W 080°07'2 4.4
2017-May-31 15:30N 26°09' W 080°06'2 4.4
2017-May-31 15:00N 26°11' W 080°06'0 0.0
2017-May-31 14:24N 26°11' W 080°06'0 0.0
2017-May-31 13:30N 26°11' W 080°06'0 0.0
2017-May-31 12:54N 26°11' W 080°06'0 0.0
2017-May-31 12:24N 26°11' W 080°06'0 0.0
2017-May-31 12:00N 26°11' W 080°06'0 0.0
2017-May-31 11:27N 26°11' W 080°06'0 0.0
2017-May-31 11:00N 26°11' W 080°06'0 0.0
2017-May-31 10:30N 26°11' W 080°06'0 0.0
2017-May-31 09:57N 26°11' W 080°06'0 0.0
2017-May-31 09:30N 26°11' W 080°06'0 0.0
2017-May-31 09:00N 26°11' W 080°06'0 0.0
2017-May-31 08:30N 26°11' W 080°06'0 0.0
2017-May-31 08:00N 26°11' W 080°06'0 0.0
2017-May-31 07:30N 26°11' W 080°06'0 0.0
2017-May-31 07:00N 26°11' W 080°06'0 0.0
2017-May-31 06:30N 26°11' W 080°06'0 0.0
2017-May-31 06:00N 26°11' W 080°06'0 0.0
2017-May-31 05:30N 26°11' W 080°06'0 0.0
2017-May-31 05:00N 26°11' W 080°06'0 0.0
2017-May-31 04:30N 26°11' W 080°06'0 0.0
2017-May-31 04:00N 26°11' W 080°06'0 0.0
2017-May-31 03:30N 26°11' W 080°06'0 0.0
2017-May-31 02:48N 26°11' W 080°06'0 0.0
2017-May-31 02:30N 26°11' W 080°06'0 0.0
2017-May-31 01:51N 26°11' W 080°06'0 0.0
2017-May-31 01:21N 26°11' W 080°06'0 0.0
2017-May-31 00:51N 26°11' W 080°06'0 0.0
2017-May-31 00:24N 26°11' W 080°06'0 0.0
2017-May-30 23:51N 26°11' W 080°06'0 0.0
2017-May-30 23:24N 26°11' W 080°06'0 0.0
2017-May-30 22:39N 26°11' W 080°06'0 0.0
2017-May-30 22:24N 26°11' W 080°06'0 0.0
2017-May-30 21:57N 26°11' W 080°06'0 0.0
2017-May-30 21:27N 26°11' W 080°06'0 0.0
2017-May-30 20:51N 26°11' W 080°06'0 0.0
2017-May-30 20:27N 26°11' W 080°06'0 0.0
2017-May-30 19:57N 26°11' W 080°06'0 0.0
2017-May-30 19:24N 26°11' W 080°06'0 0.0
2017-May-30 19:00N 26°11' W 080°06'0 0.0
2017-May-30 18:27N 26°11' W 080°06'0 0.0
2017-May-30 18:00N 26°11' W 080°06'0 0.0
2017-May-30 17:30N 26°11' W 080°06'0 0.0
2017-May-30 16:57N 26°11' W 080°06'0 0.0
2017-May-30 16:27N 26°11' W 080°06'0 0.0
2017-May-30 16:00N 26°11' W 080°06'0 0.0
2017-May-30 15:30N 26°11' W 080°06'0 0.0
2017-May-30 15:00N 26°11' W 080°06'0 0.0
2017-May-30 14:30N 26°11' W 080°06'0 0.0
2017-May-30 13:21N 26°11' W 080°06'0 0.0
2017-May-30 13:00N 26°11' W 080°06'0 0.0
2017-May-30 12:30N 26°11' W 080°06'0 0.0
2017-May-30 11:51N 26°11' W 080°06'0 0.0
2017-May-30 11:21N 26°11' W 080°06'0 0.0
2017-May-30 10:51N 26°11' W 080°06'0 0.0
2017-May-30 10:24N 26°11' W 080°06'0 0.0
2017-May-30 09:54N 26°11' W 080°06'0 0.0
2017-May-30 09:21N 26°11' W 080°06'0 0.0
2017-May-30 08:54N 26°11' W 080°06'0 0.0
2017-May-30 08:21N 26°11' W 080°06'0 0.0
2017-May-30 07:51N 26°11' W 080°06'0 0.0
2017-May-30 07:27N 26°11' W 080°06'0 0.0
2017-May-30 06:57N 26°11' W 080°06'0 0.0
2017-May-30 06:27N 26°11' W 080°06'0 0.0
2017-May-30 05:57N 26°11' W 080°06'0 0.0
2017-May-30 05:27N 26°11' W 080°06'0 0.0
2017-May-30 04:57N 26°11' W 080°06'0 0.0
2017-May-30 04:30N 26°11' W 080°06'0 0.0
2017-May-30 04:00N 26°11' W 080°06'0 0.0
2017-May-30 03:30N 26°11' W 080°06'0 0.0
2017-May-30 03:00N 26°11' W 080°06'0 0.0
2017-May-30 02:30N 26°11' W 080°06'0 0.0
2017-May-30 02:00N 26°11' W 080°06'0 0.0
2017-May-30 01:30N 26°11' W 080°06'0 0.0
2017-May-30 00:57N 26°11' W 080°06'0 0.0
2017-May-30 00:30N 26°11' W 080°06'0 0.0
2017-May-30 00:00N 26°11' W 080°06'0 0.0
2017-May-29 23:30N 26°11' W 080°06'0 0.0
2017-May-29 23:00N 26°11' W 080°06'0 0.0
2017-May-29 22:27N 26°11' W 080°06'0 0.0
2017-May-29 22:00N 26°11' W 080°06'0 0.0
2017-May-29 21:21N 26°11' W 080°06'0 0.0
2017-May-29 20:57N 26°11' W 080°06'0 0.0
2017-May-29 20:24N 26°11' W 080°06'0 0.0
2017-May-29 19:54N 26°11' W 080°06'0 0.0
2017-May-29 19:24N 26°11' W 080°06'0 0.0
2017-May-29 18:51N 26°11' W 080°06'0 0.0
2017-May-29 18:24N 26°11' W 080°06'0 0.0
2017-May-29 17:54N 26°11' W 080°06'0 0.0
2017-May-29 17:27N 26°11' W 080°06'0 0.0
2017-May-29 16:54N 26°11' W 080°06'0 0.0
2017-May-29 16:24N 26°11' W 080°06'0 0.0
2017-May-29 15:57N 26°11' W 080°06'0 0.0
2017-May-29 15:27N 26°11' W 080°06'0 0.0
2017-May-29 14:57N 26°11' W 080°06'0 0.0
2017-May-29 13:57N 26°11' W 080°06'0 0.0
2017-May-29 13:30N 26°11' W 080°06'0 0.0
2017-May-29 13:00N 26°11' W 080°06'0 0.0
2017-May-29 12:30N 26°11' W 080°06'0 0.0
2017-May-29 12:00N 26°11' W 080°06'0 0.0
2017-May-29 11:30N 26°11' W 080°06'0 0.0
2017-May-29 11:00N 26°11' W 080°06'0 0.0
2017-May-29 10:30N 26°11' W 080°06'0 0.0
2017-May-29 09:48N 26°11' W 080°06'0 0.0
2017-May-29 09:18N 26°11' W 080°06'0 0.0
2017-May-29 09:00N 26°11' W 080°06'0 0.0
2017-May-29 08:30N 26°11' W 080°06'0 0.0
2017-May-29 08:00N 26°11' W 080°06'0 0.0
2017-May-29 07:21N 26°11' W 080°06'0 0.0
2017-May-29 06:51N 26°11' W 080°06'0 0.0
2017-May-29 06:21N 26°11' W 080°06'0 0.0
2017-May-29 05:54N 26°11' W 080°06'0 0.0
2017-May-29 05:21N 26°11' W 080°06'0 0.0
2017-May-29 04:54N 26°11' W 080°06'0 0.0
2017-May-29 04:24N 26°11' W 080°06'0 0.0
2017-May-29 03:39N 26°11' W 080°06'0 0.0
2017-May-29 03:21N 26°11' W 080°06'0 0.0
2017-May-29 02:57N 26°11' W 080°06'0 0.0
2017-May-29 02:27N 26°11' W 080°06'0 0.0
2017-May-29 01:57N 26°11' W 080°06'0 0.0
2017-May-29 01:27N 26°11' W 080°06'0 0.0
2017-May-29 00:57N 26°11' W 080°06'0 0.0
2017-May-29 00:30N 26°11' W 080°06'0 0.0
2017-May-29 00:00N 26°11' W 080°06'0 0.0
2017-May-28 23:27N 26°11' W 080°06'0 0.0
2017-May-28 23:00N 26°11' W 080°06'0 0.0
2017-May-28 22:27N 26°11' W 080°06'0 0.0
2017-May-28 22:00N 26°11' W 080°06'0 0.0
2017-May-28 21:30N 26°11' W 080°06'0 0.0
2017-May-28 20:57N 26°11' W 080°06'0 0.0
2017-May-28 20:27N 26°11' W 080°06'0 0.0
2017-May-28 20:00N 26°11' W 080°06'0 0.0
2017-May-28 19:18N 26°11' W 080°06'0 0.0
2017-May-28 19:00N 26°11' W 080°06'0 0.0
2017-May-28 18:30N 26°11' W 080°06'0 0.0
2017-May-28 18:00N 26°11' W 080°06'0 0.0
2017-May-28 17:30N 26°11' W 080°06'0 0.0
2017-May-28 16:51N 26°11' W 080°06'0 0.0
2017-May-28 16:21N 26°11' W 080°06'0 0.0
2017-May-28 15:54N 26°11' W 080°06'0 0.0
2017-May-28 15:21N 26°11' W 080°06'0 0.0
2017-May-28 14:54N 26°11' W 080°06'0 0.0
2017-May-28 13:51N 26°11' W 080°06'0 0.0
2017-May-28 13:21N 26°11' W 080°06'0 0.0
2017-May-28 12:51N 26°11' W 080°06'0 0.0
2017-May-28 12:27N 26°11' W 080°06'0 0.0
2017-May-28 11:57N 26°11' W 080°06'0 0.0
2017-May-28 11:27N 26°11' W 080°06'0 0.0
2017-May-28 10:57N 26°11' W 080°06'0 0.0
2017-May-28 10:27N 26°11' W 080°06'0 0.0
2017-May-28 09:57N 26°11' W 080°06'0 0.0
2017-May-28 09:30N 26°11' W 080°06'0 0.0
2017-May-28 08:57N 26°11' W 080°06'0 0.0
2017-May-28 08:30N 26°11' W 080°06'0 0.0
2017-May-28 08:00N 26°11' W 080°06'0 0.0
2017-May-28 07:30N 26°11' W 080°06'0 0.0
2017-May-28 06:48N 26°11' W 080°06'0 0.0
2017-May-28 06:30N 26°11' W 080°06'0 0.0
2017-May-28 06:00N 26°11' W 080°06'0 0.0
2017-May-28 05:03N 26°11' W 080°06'0 0.0
2017-May-28 04:48N 26°11' W 080°06'0 0.0
2017-May-28 04:21N 26°11' W 080°06'0 0.0
2017-May-28 03:51N 26°11' W 080°06'0 0.0
2017-May-28 03:30N 26°11' W 080°06'0 0.0
2017-May-28 02:51N 26°11' W 080°06'0 0.0
2017-May-28 02:21N 26°11' W 080°06'0 0.0
2017-May-28 01:51N 26°11' W 080°06'0 0.0
2017-May-28 01:21N 26°11' W 080°06'0 0.0
2017-May-28 00:54N 26°11' W 080°06'0 0.0
2017-May-28 00:24N 26°11' W 080°06'0 0.0
2017-May-27 23:51N 26°11' W 080°06'0 0.0
2017-May-27 23:24N 26°11' W 080°06'0 0.0
2017-May-27 22:57N 26°11' W 080°06'0 0.0
2017-May-27 22:24N 26°11' W 080°06'0 0.0
2017-May-27 21:57N 26°11' W 080°06'0 0.0
2017-May-27 20:57N 26°11' W 080°06'0 0.0
2017-May-27 20:27N 26°11' W 080°06'0 0.0
2017-May-27 20:00N 26°11' W 080°06'0 0.0
2017-May-27 19:27N 26°11' W 080°06'0 0.0
2017-May-27 19:00N 26°11' W 080°06'0 0.0
2017-May-27 18:30N 26°11' W 080°06'0 0.0
2017-May-27 18:00N 26°11' W 080°06'0 0.0
2017-May-27 17:30N 26°11' W 080°06'0 0.0
2017-May-27 17:00N 26°11' W 080°06'0 0.0
2017-May-27 16:30N 26°11' W 080°06'0 0.0
2017-May-27 16:00N 26°11' W 080°06'0 0.0
2017-May-27 15:30N 26°11' W 080°06'0 0.0
2017-May-27 15:00N 26°11' W 080°06'0 0.0
2017-May-27 14:30N 26°11' W 080°06'0 0.0
2017-May-27 13:21N 26°11' W 080°06'0 0.0
2017-May-27 13:00N 26°11' W 080°06'0 0.0
2017-May-27 12:21N 26°11' W 080°06'0 0.0
2017-May-27 11:51N 26°11' W 080°06'0 0.0
2017-May-27 11:24N 26°11' W 080°06'0 0.0
2017-May-27 10:54N 26°11' W 080°06'  
Track history (hours):
 
Tides and Currents Weather Stations Pressure Air Temp Water Temp Dewpoint Dewpoint Depression Visibility Wind Speed Wind Dir Waves Ship Positions

Kipany

Owner: Im Kipany, LLC, Ft. Lauderdale, FL. More information available from US FCC via Universal Licensing System and Coast Guard Vessel Documentation Center.

Last reported at 2017-Jun-06 10:48 UTC. Time now 2017-Aug-16 21:49 UTC.
Position N 34°32' W 076°36'.
Warning: this ship's position is months out of date.

Length 35 m; draft 2 m.

Type: Pleasure craft. MMSI: 367192870.

Date/timePositionNaut miles runAvg speedWind from/ knotsBaromVisibWave heightAir tempDewpointWater temp
2017-Jun-06 10:48N 34°32' W 076°36'415.5
2017-Jun-06 10:30N 34°36' W 076°38'612.9
2017-Jun-06 10:01N 34°42' W 076°41'1 1.7
2017-Jun-06 09:29N 34°43' W 076°40'0 0.0
2017-Jun-06 08:59N 34°43' W 076°40'0 0.0
2017-Jun-06 08:29N 34°43' W 076°40'0 0.0
2017-Jun-06 07:59N 34°43' W 076°40'0 0.0
2017-Jun-06 07:29N 34°43' W 076°40'0 0.0
2017-Jun-06 06:59N 34°43' W 076°40'0 0.0
2017-Jun-06 06:29N 34°43' W 076°40'0 0.0
2017-Jun-06 05:50N 34°43' W 076°40'0 0.0
2017-Jun-06 05:29N 34°43' W 076°40'0 0.0
2017-Jun-06 04:59N 34°43' W 076°40'0 0.0
2017-Jun-06 04:29N 34°43' W 076°40'0 0.0
2017-Jun-06 03:59N 34°43' W 076°40'0 0.0
2017-Jun-06 03:29N 34°43' W 076°40'0 0.0
2017-Jun-06 02:59N 34°43' W 076°40'0 0.0
2017-Jun-06 02:29N 34°43' W 076°40'0 0.0
2017-Jun-06 01:59N 34°43' W 076°40'0 0.0
2017-Jun-06 01:29N 34°43' W 076°40'0 0.0
2017-Jun-06 00:59N 34°43' W 076°40'0 0.0
2017-Jun-06 00:29N 34°43' W 076°40'0 0.0
2017-Jun-05 23:59N 34°43' W 076°40'0 0.0
2017-Jun-05 23:29N 34°43' W 076°40'0 0.0
2017-Jun-05 22:59N 34°43' W 076°40'0 0.0
2017-Jun-05 22:29N 34°43' W 076°40'0 0.0
2017-Jun-05 21:56N 34°43' W 076°40'0 0.0
2017-Jun-05 21:29N 34°43' W 076°40'0 0.0
2017-Jun-05 20:59N 34°43' W 076°40'0 0.0
2017-Jun-05 20:29N 34°43' W 076°40'0 0.0
2017-Jun-05 19:56N 34°43' W 076°40'0 0.0
2017-Jun-05 19:29N 34°43' W 076°40'0 0.0
2017-Jun-05 18:59N 34°43' W 076°40'0 0.0
2017-Jun-05 18:29N 34°43' W 076°40'0 0.0
2017-Jun-05 17:59N 34°43' W 076°40'0 0.0
2017-Jun-05 17:29N 34°43' W 076°40'0 0.0
2017-Jun-05 17:00N 34°43' W 076°40'2 3.2
2017-Jun-05 16:30N 34°41' W 076°40'612.9
2017-Jun-05 16:00N 34°35' W 076°40'52512.0
2017-Jun-03 20:09N 26°18' W 079°58'215.4
2017-Jun-03 20:00N 26°16' W 079°59'715.0
2017-Jun-03 19:30N 26°10' W 080°03'510.8
2017-Jun-03 19:00N 26°06' W 080°07'3 5.3
2017-Jun-03 18:30N 26°09' W 080°06'2 4.7
2017-Jun-03 18:00N 26°11' W 080°06'0 0.0
2017-Jun-03 17:14N 26°11' W 080°06'0 0.0
2017-Jun-03 16:44N 26°11' W 080°06'0 0.0
2017-Jun-03 16:29N 26°11' W 080°06'0 0.0
2017-Jun-03 15:59N 26°11' W 080°06'0 0.0
2017-Jun-03 15:29N 26°11' W 080°06'0 0.0
2017-Jun-03 14:59N 26°11' W 080°06'0 0.0
2017-Jun-03 13:59N 26°11' W 080°06'0 0.0
2017-Jun-03 13:29N 26°11' W 080°06'0 0.0
2017-Jun-03 12:59N 26°11' W 080°06'0 0.0
2017-Jun-03 12:14N 26°11' W 080°06'0 0.0
2017-Jun-03 11:56N 26°11' W 080°06'0 0.0
2017-Jun-03 11:26N 26°11' W 080°06'0 0.0
2017-Jun-03 10:53N 26°11' W 080°06'0 0.0
2017-Jun-03 10:26N 26°11' W 080°06'0 0.0
2017-Jun-03 09:56N 26°11' W 080°06'0 0.0
2017-Jun-03 09:20N 26°11' W 080°06'0 0.0
2017-Jun-03 08:50N 26°11' W 080°06'0 0.0
2017-Jun-03 08:29N 26°11' W 080°06'0 0.0
2017-Jun-03 07:56N 26°11' W 080°06'0 0.0
2017-Jun-03 07:26N 26°11' W 080°06'0 0.0
2017-Jun-03 06:53N 26°11' W 080°06'0 0.0
2017-Jun-03 06:20N 26°11' W 080°06'0 0.0
2017-Jun-03 05:56N 26°11' W 080°06'0 0.0
2017-Jun-03 05:29N 26°11' W 080°06'0 0.0
2017-Jun-03 04:59N 26°11' W 080°06'0 0.0
2017-Jun-03 04:29N 26°11' W 080°06'0 0.0
2017-Jun-03 03:59N 26°11' W 080°06'0 0.0
2017-Jun-03 03:29N 26°11' W 080°06'0 0.0
2017-Jun-03 02:59N 26°11' W 080°06'0 0.0
2017-Jun-03 02:26N 26°11' W 080°06'0 0.0
2017-Jun-03 01:59N 26°11' W 080°06'0 0.0
2017-Jun-03 01:30N 26°11' W 080°06'3 5.4
2017-Jun-03 01:00N 26°08' W 080°07'1 3.0
2017-Jun-03 00:30N 26°07' W 080°07'1 3.0
2017-Jun-03 00:01N 26°07' W 080°05'1 2.7
2017-Jun-02 23:31N 26°06' W 080°05'2 4.4
2017-Jun-02 23:00N 26°06' W 080°07'3 5.5
2017-Jun-02 22:30N 26°09' W 080°06'2 4.4
2017-Jun-02 22:00N 26°11' W 080°06'0 0.4
2017-Jun-02 21:27N 26°11' W 080°06'0 0.0
2017-Jun-02 21:00N 26°11' W 080°06'0 0.0
2017-Jun-02 20:24N 26°11' W 080°06'0 0.0
2017-Jun-02 19:57N 26°11' W 080°06'0 0.0
2017-Jun-02 19:30N 26°11' W 080°06'0 0.0
2017-Jun-02 19:00N 26°11' W 080°06'3 5.5
2017-Jun-02 18:30N 26°08' W 080°07'1 2.8
2017-Jun-02 18:00N 26°07' W 080°07'3 5.5
2017-Jun-02 17:31N 26°06' W 080°04'3 6.4
2017-Jun-02 17:00N 26°06' W 080°07'2 4.9
2017-Jun-02 16:30N 26°09' W 080°06'2 3.4
2017-Jun-02 16:01N 26°10' W 080°06'1 1.2
2017-Jun-02 15:28N 26°11' W 080°06'0 0.0
2017-Jun-02 14:58N 26°11' W 080°06'0 0.0
2017-Jun-02 14:22N 26°11' W 080°06'0 0.0
2017-Jun-02 13:22N 26°11' W 080°06'0 0.0
2017-Jun-02 12:55N 26°11' W 080°06'0 0.0
2017-Jun-02 12:25N 26°11' W 080°06'0 0.0
2017-Jun-02 11:58N 26°11' W 080°06'0 0.0
2017-Jun-02 11:28N 26°11' W 080°06'0 0.0
2017-Jun-02 10:55N 26°11' W 080°06'0 0.0
2017-Jun-02 10:28N 26°11' W 080°06'0 0.0
2017-Jun-02 09:58N 26°11' W 080°06'0 0.0
2017-Jun-02 09:28N 26°11' W 080°06'0 0.0
2017-Jun-02 08:58N 26°11' W 080°06'0 0.0
2017-Jun-02 08:28N 26°11' W 080°06'0 0.0
2017-Jun-02 07:58N 26°11' W 080°06'0 0.0
2017-Jun-02 07:28N 26°11' W 080°06'0 0.0
2017-Jun-02 06:58N 26°11' W 080°06'0 0.0
2017-Jun-02 06:28N 26°11' W 080°06'0 0.0
2017-Jun-02 05:58N 26°11' W 080°06'0 0.0
2017-Jun-02 05:28N 26°11' W 080°06'0 0.0
2017-Jun-02 04:58N 26°11' W 080°06'0 0.0
2017-Jun-02 04:28N 26°11' W 080°06'0 0.0
2017-Jun-02 03:58N 26°11' W 080°06'0 0.0
2017-Jun-02 03:19N 26°11' W 080°06'0 0.0
2017-Jun-02 02:55N 26°11' W 080°06'0 0.0
2017-Jun-02 02:25N 26°11' W 080°06'0 0.0
2017-Jun-02 01:55N 26°11' W 080°06'0 0.0
2017-Jun-02 01:25N 26°11' W 080°06'0 0.0
2017-Jun-02 00:55N 26°11' W 080°06'0 0.0
2017-Jun-02 00:19N 26°11' W 080°06'0 0.0
2017-Jun-01 23:55N 26°11' W 080°06'0 0.0
2017-Jun-01 23:25N 26°11' W 080°06'0 0.0
2017-Jun-01 22:52N 26°11' W 080°06'0 0.0
2017-Jun-01 22:25N 26°11' W 080°06'0 0.0
2017-Jun-01 21:52N 26°11' W 080°06'0 0.0
2017-Jun-01 21:28N 26°11' W 080°06'0 0.0
2017-Jun-01 21:00N 26°11' W 080°06'3 5.5
2017-Jun-01 20:30N 26°08' W 080°07'1 2.1
2017-Jun-01 20:00N 26°07' W 080°07'2 3.4
2017-Jun-01 19:30N 26°06' W 080°06'3 6.8
2017-Jun-01 19:01N 26°08' W 080°03'2 4.2
2017-Jun-01 18:31N 26°08' W 080°05'3 5.0
2017-Jun-01 18:00N 26°06' W 080°07'2 4.6
2017-Jun-01 17:30N 26°08' W 080°06'2 5.0
2017-Jun-01 17:00N 26°11' W 080°06'0 0.1
2017-Jun-01 16:29N 26°11' W 080°06'0 0.0
2017-Jun-01 15:59N 26°11' W 080°06'0 0.0
2017-Jun-01 15:29N 26°11' W 080°06'0 0.0
2017-Jun-01 14:59N 26°11' W 080°06'0 0.0
2017-Jun-01 14:29N 26°11' W 080°06'0 0.0
2017-Jun-01 13:29N 26°11' W 080°06'0 0.0
2017-Jun-01 12:59N 26°11' W 080°06'0 0.0
2017-Jun-01 12:29N 26°11' W 080°06'0 0.0
2017-Jun-01 11:56N 26°11' W 080°06'0 0.0
2017-Jun-01 11:29N 26°11' W 080°06'0 0.0
2017-Jun-01 10:59N 26°11' W 080°06'0 0.0
2017-Jun-01 10:29N 26°11' W 080°06'0 0.0
2017-Jun-01 09:59N 26°11' W 080°06'0 0.0
2017-Jun-01 09:29N 26°11' W 080°06'0 0.0
2017-Jun-01 08:59N 26°11' W 080°06'0 0.0
2017-Jun-01 08:29N 26°11' W 080°06'0 0.0
2017-Jun-01 07:56N 26°11' W 080°06'0 0.0
2017-Jun-01 07:29N 26°11' W 080°06'0 0.0
2017-Jun-01 06:59N 26°11' W 080°06'0 0.0
2017-Jun-01 06:29N 26°11' W 080°06'0 0.0
2017-Jun-01 05:59N 26°11' W 080°06'0 0.0
2017-Jun-01 05:29N 26°11' W 080°06'0 0.0
2017-Jun-01 04:59N 26°11' W 080°06'0 0.0
2017-Jun-01 04:29N 26°11' W 080°06'0 0.0
2017-Jun-01 03:56N 26°11' W 080°06'0 0.0
2017-Jun-01 03:29N 26°11' W 080°06'0 0.0
2017-Jun-01 02:59N 26°11' W 080°06'0 0.0
2017-Jun-01 02:26N 26°11' W 080°06'0 0.0
2017-Jun-01 01:59N 26°11' W 080°06'0 0.0
2017-Jun-01 01:29N 26°11' W 080°06'0 0.0
2017-Jun-01 00:59N 26°11' W 080°06'0 0.0
2017-Jun-01 00:29N 26°11' W 080°06'0 0.0
2017-May-31 23:59N 26°11' W 080°06'0 0.0
2017-May-31 23:29N 26°11' W 080°06'0 0.0
2017-May-31 22:56N 26°11' W 080°06'0 0.0
2017-May-31 22:29N 26°11' W 080°06'0 0.0
2017-May-31 21:59N 26°11' W 080°06'0 0.0
2017-May-31 21:26N 26°11' W 080°06'0 0.0
2017-May-31 20:59N 26°11' W 080°06'0 0.0
2017-May-31 20:30N 26°11' W 080°06'3 5.5
2017-May-31 20:00N 26°08' W 080°07'2 4.6
2017-May-31 19:30N 26°06' W 080°07'5 9.2
2017-May-31 19:00N 26°10' W 080°04'2 3.7
2017-May-31 18:31N 26°08' W 080°04'713.9
2017-May-31 18:01N 26°05' W 079°57'3 5.8
2017-May-31 17:30N 26°05' W 079°60'4 8.7
2017-May-31 17:00N 26°05' W 080°05'2 4.8
2017-May-31 16:30N 26°06' W 080°07'0 0.8
2017-May-31 16:00N 26°07' W 080°07'2 4.4
2017-May-31 15:30N 26°09' W 080°06'2 4.4
2017-May-31 15:00N 26°11' W 080°06'0 0.0
2017-May-31 14:24N 26°11' W 080°06'0 0.0
2017-May-31 13:30N 26°11' W 080°06'0 0.0
2017-May-31 12:54N 26°11' W 080°06'0 0.0
2017-May-31 12:24N 26°11' W 080°06'0 0.0
2017-May-31 12:00N 26°11' W 080°06'0 0.0
2017-May-31 11:27N 26°11' W 080°06'0 0.0
2017-May-31 11:00N 26°11' W 080°06'0 0.0
2017-May-31 10:30N 26°11' W 080°06'0 0.0
2017-May-31 09:57N 26°11' W 080°06'0 0.0
2017-May-31 09:30N 26°11' W 080°06'0 0.0
2017-May-31 09:00N 26°11' W 080°06'0 0.0
2017-May-31 08:30N 26°11' W 080°06'0 0.0
2017-May-31 08:00N 26°11' W 080°06'0 0.0
2017-May-31 07:30N 26°11' W 080°06'0 0.0
2017-May-31 07:00N 26°11' W 080°06'0 0.0
2017-May-31 06:30N 26°11' W 080°06'0 0.0
2017-May-31 06:00N 26°11' W 080°06'0 0.0
2017-May-31 05:30N 26°11' W 080°06'0 0.0
2017-May-31 05:00N 26°11' W 080°06'0 0.0
2017-May-31 04:30N 26°11' W 080°06'0 0.0
2017-May-31 04:00N 26°11' W 080°06'0 0.0
2017-May-31 03:30N 26°11' W 080°06'0 0.0
2017-May-31 02:48N 26°11' W 080°06'0 0.0
2017-May-31 02:30N 26°11' W 080°06'0 0.0
2017-May-31 01:51N 26°11' W 080°06'0 0.0
2017-May-31 01:21N 26°11' W 080°06'0 0.0
2017-May-31 00:51N 26°11' W 080°06'0 0.0
2017-May-31 00:24N 26°11' W 080°06'0 0.0
2017-May-30 23:51N 26°11' W 080°06'0 0.0
2017-May-30 23:24N 26°11' W 080°06'0 0.0
2017-May-30 22:39N 26°11' W 080°06'0 0.0
2017-May-30 22:24N 26°11' W 080°06'0 0.0
2017-May-30 21:57N 26°11' W 080°06'0 0.0
2017-May-30 21:27N 26°11' W 080°06'0 0.0
2017-May-30 20:51N 26°11' W 080°06'0 0.0
2017-May-30 20:27N 26°11' W 080°06'0 0.0
2017-May-30 19:57N 26°11' W 080°06'0 0.0
2017-May-30 19:24N 26°11' W 080°06'0 0.0
2017-May-30 19:00N 26°11' W 080°06'0 0.0
2017-May-30 18:27N 26°11' W 080°06'0 0.0
2017-May-30 18:00N 26°11' W 080°06'0 0.0
2017-May-30 17:30N 26°11' W 080°06'0 0.0
2017-May-30 16:57N 26°11' W 080°06'0 0.0
2017-May-30 16:27N 26°11' W 080°06'0 0.0
2017-May-30 16:00N 26°11' W 080°06'0 0.0
2017-May-30 15:30N 26°11' W 080°06'0 0.0
2017-May-30 15:00N 26°11' W 080°06'0 0.0
2017-May-30 14:30N 26°11' W 080°06'0 0.0
2017-May-30 13:21N 26°11' W 080°06'0 0.0
2017-May-30 13:00N 26°11' W 080°06'0 0.0
2017-May-30 12:30N 26°11' W 080°06'0 0.0
2017-May-30 11:51N 26°11' W 080°06'0 0.0
2017-May-30 11:21N 26°11' W 080°06'0 0.0
2017-May-30 10:51N 26°11' W 080°06'0 0.0
2017-May-30 10:24N 26°11' W 080°06'0 0.0
2017-May-30 09:54N 26°11' W 080°06'0 0.0
2017-May-30 09:21N 26°11' W 080°06'0 0.0
2017-May-30 08:54N 26°11' W 080°06'0 0.0
2017-May-30 08:21N 26°11' W 080°06'0 0.0
2017-May-30 07:51N 26°11' W 080°06'0 0.0
2017-May-30 07:27N 26°11' W 080°06'0 0.0
2017-May-30 06:57N 26°11' W 080°06'0 0.0
2017-May-30 06:27N 26°11' W 080°06'0 0.0
2017-May-30 05:57N 26°11' W 080°06'0 0.0
2017-May-30 05:27N 26°11' W 080°06'0 0.0
2017-May-30 04:57N 26°11' W 080°06'0 0.0
2017-May-30 04:30N 26°11' W 080°06'0 0.0
2017-May-30 04:00N 26°11' W 080°06'0 0.0
2017-May-30 03:30N 26°11' W 080°06'0 0.0
2017-May-30 03:00N 26°11' W 080°06'0 0.0
2017-May-30 02:30N 26°11' W 080°06'0 0.0
2017-May-30 02:00N 26°11' W 080°06'0 0.0
2017-May-30 01:30N 26°11' W 080°06'0 0.0
2017-May-30 00:57N 26°11' W 080°06'0 0.0
2017-May-30 00:30N 26°11' W 080°06'0 0.0
2017-May-30 00:00N 26°11' W 080°06'0 0.0
2017-May-29 23:30N 26°11' W 080°06'0 0.0
2017-May-29 23:00N 26°11' W 080°06'0 0.0
2017-May-29 22:27N 26°11' W 080°06'0 0.0
2017-May-29 22:00N 26°11' W 080°06'0 0.0
2017-May-29 21:21N 26°11' W 080°06'0 0.0
2017-May-29 20:57N 26°11' W 080°06'0 0.0
2017-May-29 20:24N 26°11' W 080°06'0 0.0
2017-May-29 19:54N 26°11' W 080°06'0 0.0
2017-May-29 19:24N 26°11' W 080°06'0 0.0
2017-May-29 18:51N 26°11' W 080°06'0 0.0
2017-May-29 18:24N 26°11' W 080°06'0 0.0
2017-May-29 17:54N 26°11' W 080°06'0 0.0
2017-May-29 17:27N 26°11' W 080°06'0 0.0
2017-May-29 16:54N 26°11' W 080°06'0 0.0
2017-May-29 16:24N 26°11' W 080°06'0 0.0
2017-May-29 15:57N 26°11' W 080°06'0 0.0
2017-May-29 15:27N 26°11' W 080°06'0 0.0
2017-May-29 14:57N 26°11' W 080°06'0 0.0
2017-May-29 13:57N 26°11' W 080°06'0 0.0
2017-May-29 13:30N 26°11' W 080°06'0 0.0
2017-May-29 13:00N 26°11' W 080°06'0 0.0
2017-May-29 12:30N 26°11' W 080°06'0 0.0
2017-May-29 12:00N 26°11' W 080°06'0 0.0
2017-May-29 11:30N 26°11' W 080°06'0 0.0
2017-May-29 11:00N 26°11' W 080°06'0 0.0
2017-May-29 10:30N 26°11' W 080°06'0 0.0
2017-May-29 09:48N 26°11' W 080°06'0 0.0
2017-May-29 09:18N 26°11' W 080°06'0 0.0
2017-May-29 09:00N 26°11' W 080°06'0 0.0
2017-May-29 08:30N 26°11' W 080°06'0 0.0
2017-May-29 08:00N 26°11' W 080°06'0 0.0
2017-May-29 07:21N 26°11' W 080°06'0 0.0
2017-May-29 06:51N 26°11' W 080°06'0 0.0
2017-May-29 06:21N 26°11' W 080°06'0 0.0
2017-May-29 05:54N 26°11' W 080°06'0 0.0
2017-May-29 05:21N 26°11' W 080°06'0 0.0
2017-May-29 04:54N 26°11' W 080°06'0 0.0
2017-May-29 04:24N 26°11' W 080°06'0 0.0
2017-May-29 03:39N 26°11' W 080°06'0 0.0
2017-May-29 03:21N 26°11' W 080°06'0 0.0
2017-May-29 02:57N 26°11' W 080°06'0 0.0
2017-May-29 02:27N 26°11' W 080°06'0 0.0
2017-May-29 01:57N 26°11' W 080°06'0 0.0
2017-May-29 01:27N 26°11' W 080°06'0 0.0
2017-May-29 00:57N 26°11' W 080°06'0 0.0
2017-May-29 00:30N 26°11' W 080°06'0 0.0
2017-May-29 00:00N 26°11' W 080°06'0 0.0
2017-May-28 23:27N 26°11' W 080°06'0 0.0
2017-May-28 23:00N 26°11' W 080°06'0 0.0
2017-May-28 22:27N 26°11' W 080°06'0 0.0
2017-May-28 22:00N 26°11' W 080°06'0 0.0
2017-May-28 21:30N 26°11' W 080°06'0 0.0
2017-May-28 20:57N 26°11' W 080°06'0 0.0
2017-May-28 20:27N 26°11' W 080°06'0 0.0
2017-May-28 20:00N 26°11' W 080°06'0 0.0
2017-May-28 19:18N 26°11' W 080°06'0 0.0
2017-May-28 19:00N 26°11' W 080°06'0 0.0
2017-May-28 18:30N 26°11' W 080°06'0 0.0
2017-May-28 18:00N 26°11' W 080°06'0 0.0
2017-May-28 17:30N 26°11' W 080°06'0 0.0
2017-May-28 16:51N 26°11' W 080°06'0 0.0
2017-May-28 16:21N 26°11' W 080°06'0 0.0
2017-May-28 15:54N 26°11' W 080°06'0 0.0
2017-May-28 15:21N 26°11' W 080°06'0 0.0
2017-May-28 14:54N 26°11' W 080°06'0 0.0
2017-May-28 13:51N 26°11' W 080°06'0 0.0
2017-May-28 13:21N 26°11' W 080°06'0 0.0
2017-May-28 12:51N 26°11' W 080°06'0 0.0
2017-May-28 12:27N 26°11' W 080°06'0 0.0
2017-May-28 11:57N 26°11' W 080°06'0 0.0
2017-May-28 11:27N 26°11' W 080°06'0 0.0
2017-May-28 10:57N 26°11' W 080°06'0 0.0
2017-May-28 10:27N 26°11' W 080°06'0 0.0
2017-May-28 09:57N 26°11' W 080°06'0 0.0
2017-May-28 09:30N 26°11' W 080°06'0 0.0
2017-May-28 08:57N 26°11' W 080°06'0 0.0
2017-May-28 08:30N 26°11' W 080°06'0 0.0
2017-May-28 08:00N 26°11' W 080°06'0 0.0
2017-May-28 07:30N 26°11' W 080°06'0 0.0
2017-May-28 06:48N 26°11' W 080°06'0 0.0
2017-May-28 06:30N 26°11' W 080°06'0 0.0
2017-May-28 06:00N 26°11' W 080°06'0 0.0
2017-May-28 05:03N 26°11' W 080°06'0 0.0
2017-May-28 04:48N 26°11' W 080°06'0 0.0
2017-May-28 04:21N 26°11' W 080°06'0 0.0
2017-May-28 03:51N 26°11' W 080°06'0 0.0
2017-May-28 03:30N 26°11' W 080°06'0 0.0
2017-May-28 02:51N 26°11' W 080°06'0 0.0
2017-May-28 02:21N 26°11' W 080°06'0 0.0
2017-May-28 01:51N 26°11' W 080°06'0 0.0
2017-May-28 01:21N 26°11' W 080°06'0 0.0
2017-May-28 00:54N 26°11' W 080°06'0 0.0
2017-May-28 00:24N 26°11' W 080°06'0 0.0
2017-May-27 23:51N 26°11' W 080°06'0 0.0
2017-May-27 23:24N 26°11' W 080°06'0 0.0
2017-May-27 22:57N 26°11' W 080°06'0 0.0
2017-May-27 22:24N 26°11' W 080°06'0 0.0
2017-May-27 21:57N 26°11' W 080°06'0 0.0
2017-May-27 20:57N 26°11' W 080°06'0 0.0
2017-May-27 20:27N 26°11' W 080°06'0 0.0
2017-May-27 20:00N 26°11' W 080°06'0 0.0
2017-May-27 19:27N 26°11' W 080°06'0 0.0
2017-May-27 19:00N 26°11' W 080°06'0 0.0
2017-May-27 18:30N 26°11' W 080°06'0 0.0
2017-May-27 18:00N 26°11' W 080°06'0 0.0
2017-May-27 17:30N 26°11' W 080°06'0 0.0
2017-May-27 17:00N 26°11' W 080°06'0 0.0
2017-May-27 16:30N 26°11' W 080°06'0 0.0
2017-May-27 16:00N 26°11' W 080°06'0 0.0
2017-May-27 15:30N 26°11' W 080°06'0 0.0
2017-May-27 15:00N 26°11' W 080°06'0 0.0
2017-May-27 14:30N 26°11' W 080°06'0 0.0
2017-May-27 13:21N 26°11' W 080°06'0 0.0
2017-May-27 13:00N 26°11' W 080°06'0 0.0
2017-May-27 12:21N 26°11' W 080°06'0 0.0
2017-May-27 11:51N 26°11' W 080°06'0 0.0
2017-May-27 11:24N 26°11' W 080°06'0 0.0
2017-May-27 10:54N 26°11' W 080°06'  

Dump ship's entire track history